sensor_id;sensor_type;location;lat;lon;timestamp;pressure;altitude;pressure_sealevel;temperature;humidity
54870;BME280;40756;-37.950;145.008;2022-09-09T00:00:34;100589.79;;;17.51;44.46
54870;BME280;40756;-37.950;145.008;2022-09-09T00:03:12;100593.55;;;17.41;44.88
54870;BME280;40756;-37.950;145.008;2022-09-09T00:05:47;100593.55;;;17.76;44.79
54870;BME280;40756;-37.950;145.008;2022-09-09T00:08:24;100591.52;;;17.59;44.43
54870;BME280;40756;-37.950;145.008;2022-09-09T00:10:59;100589.73;;;17.88;44.89
54870;BME280;40756;-37.950;145.008;2022-09-09T00:13:34;100583.14;;;17.57;44.53
54870;BME280;40756;-37.950;145.008;2022-09-09T00:16:11;100579.06;;;17.98;44.79
54870;BME280;40756;-37.950;145.008;2022-09-09T00:18:52;100572.56;;;18.09;44.20
54870;BME280;40756;-37.950;145.008;2022-09-09T00:21:28;100570.50;;;17.87;44.02
54870;BME280;40756;-37.950;145.008;2022-09-09T00:24:00;100567.79;;;18.26;43.84
54870;BME280;40756;-37.950;145.008;2022-09-09T00:26:38;100569.59;;;18.31;43.67
54870;BME280;40756;-37.950;145.008;2022-09-09T00:29:25;100569.16;;;18.52;44.05
54870;BME280;40756;-37.950;145.008;2022-09-09T00:32:04;100569.76;;;18.78;43.54
54870;BME280;40756;-37.950;145.008;2022-09-09T00:34:43;100569.84;;;18.81;42.75
54870;BME280;40756;-37.950;145.008;2022-09-09T00:37:14;100567.66;;;17.96;41.90
54870;BME280;40756;-37.950;145.008;2022-09-09T00:39:46;100561.17;;;18.79;41.80
54870;BME280;40756;-37.950;145.008;2022-09-09T00:42:18;100553.91;;;19.11;41.58
54870;BME280;40756;-37.950;145.008;2022-09-09T00:44:55;100554.53;;;18.94;41.56
54870;BME280;40756;-37.950;145.008;2022-09-09T00:47:45;100559.48;;;19.10;41.59
54870;BME280;40756;-37.950;145.008;2022-09-09T00:50:34;100555.74;;;19.06;41.37
54870;BME280;40756;-37.950;145.008;2022-09-09T00:53:15;100549.78;;;19.30;40.53
54870;BME280;40756;-37.950;145.008;2022-09-09T00:55:54;100549.25;;;19.23;40.30
54870;BME280;40756;-37.950;145.008;2022-09-09T00:58:28;100541.71;;;19.46;39.79
54870;BME280;40756;-37.950;145.008;2022-09-09T01:01:00;100544.66;;;19.57;40.23
54870;BME280;40756;-37.950;145.008;2022-09-09T01:03:36;100541.86;;;19.47;39.28
54870;BME280;40756;-37.950;145.008;2022-09-09T01:06:16;100542.49;;;19.81;40.51
54870;BME280;40756;-37.950;145.008;2022-09-09T01:09:17;100537.87;;;19.16;38.51
54870;BME280;40756;-37.950;145.008;2022-09-09T01:11:57;100532.75;;;19.82;38.92
54870;BME280;40756;-37.950;145.008;2022-09-09T01:14:39;100535.58;;;19.98;39.15
54870;BME280;40756;-37.950;145.008;2022-09-09T01:17:15;100534.52;;;20.48;38.34
54870;BME280;40756;-37.950;145.008;2022-09-09T01:19:59;100533.46;;;20.26;38.45
54870;BME280;40756;-37.950;145.008;2022-09-09T01:22:36;100528.25;;;20.66;37.17
54870;BME280;40756;-37.950;145.008;2022-09-09T01:25:28;100528.92;;;20.53;37.20
54870;BME280;40756;-37.950;145.008;2022-09-09T01:28:02;100525.77;;;20.99;36.95
54870;BME280;40756;-37.950;145.008;2022-09-09T01:30:33;100526.46;;;20.92;37.01
54870;BME280;40756;-37.950;145.008;2022-09-09T01:33:03;100527.17;;;20.76;36.50
54870;BME280;40756;-37.950;145.008;2022-09-09T01:35:42;100522.96;;;20.68;35.43
54870;BME280;40756;-37.950;145.008;2022-09-09T01:38:13;100521.16;;;20.65;35.95
54870;BME280;40756;-37.950;145.008;2022-09-09T01:40:43;100524.09;;;20.91;35.87
54870;BME280;40756;-37.950;145.008;2022-09-09T01:43:12;100518.63;;;20.92;36.49
54870;BME280;40756;-37.950;145.008;2022-09-09T01:45:43;100513.60;;;20.69;35.50
54870;BME280;40756;-37.950;145.008;2022-09-09T01:48:13;100509.69;;;21.15;36.28
54870;BME280;40756;-37.950;145.008;2022-09-09T01:55:10;100509.51;;;21.44;36.86
54870;BME280;40756;-37.950;145.008;2022-09-09T01:57:46;100503.18;;;20.91;34.76
54870;BME280;40756;-37.950;145.008;2022-09-09T02:00:18;100504.83;;;21.59;34.88
54870;BME280;40756;-37.950;145.008;2022-09-09T02:02:55;100506.09;;;21.29;34.27
54870;BME280;40756;-37.950;145.008;2022-09-09T02:05:35;100507.15;;;21.20;34.47
54870;BME280;40756;-37.950;145.008;2022-09-09T02:08:09;100502.08;;;21.34;34.95
54870;BME280;40756;-37.950;145.008;2022-09-09T02:10:45;100502.30;;;21.47;33.54
54870;BME280;40756;-37.950;145.008;2022-09-09T02:13:17;100495.97;;;21.07;33.15
54870;BME280;40756;-37.950;145.008;2022-09-09T02:15:54;100496.64;;;21.68;34.00
54870;BME280;40756;-37.950;145.008;2022-09-09T02:18:27;100490.37;;;21.93;34.48
54870;BME280;40756;-37.950;145.008;2022-09-09T02:21:00;100483.01;;;22.30;33.52
54870;BME280;40756;-37.950;145.008;2022-09-09T02:23:32;100477.86;;;22.11;32.90
54870;BME280;40756;-37.950;145.008;2022-09-09T02:26:03;100470.32;;;22.08;33.79
54870;BME280;40756;-37.950;145.008;2022-09-09T02:28:34;100465.08;;;22.02;33.32
54870;BME280;40756;-37.950;145.008;2022-09-09T02:31:04;100460.02;;;22.26;33.56
54870;BME280;40756;-37.950;145.008;2022-09-09T02:33:38;100458.61;;;22.51;33.75
54870;BME280;40756;-37.950;145.008;2022-09-09T02:36:11;100459.55;;;22.29;32.39
54870;BME280;40756;-37.950;145.008;2022-09-09T02:38:46;100456.01;;;22.72;30.97
54870;BME280;40756;-37.950;145.008;2022-09-09T02:41:16;100454.63;;;22.86;31.59
54870;BME280;40756;-37.950;145.008;2022-09-09T02:43:45;100445.73;;;23.27;29.85
54870;BME280;40756;-37.950;145.008;2022-09-09T02:46:27;100447.00;;;22.91;30.21
54870;BME280;40756;-37.950;145.008;2022-09-09T02:49:03;100446.98;;;23.03;29.60
54870;BME280;40756;-37.950;145.008;2022-09-09T02:51:44;100440.46;;;23.03;28.75
54870;BME280;40756;-37.950;145.008;2022-09-09T02:54:22;100440.58;;;23.77;30.78
54870;BME280;40756;-37.950;145.008;2022-09-09T02:56:56;100435.24;;;24.10;28.89
54870;BME280;40756;-37.950;145.008;2022-09-09T02:59:29;100433.47;;;24.56;27.66
54870;BME280;40756;-37.950;145.008;2022-09-09T03:01:59;100430.46;;;24.36;26.47
54870;BME280;40756;-37.950;145.008;2022-09-09T03:04:28;100426.31;;;24.47;28.73
54870;BME280;40756;-37.950;145.008;2022-09-09T03:06:59;100425.85;;;23.78;27.50
54870;BME280;40756;-37.950;145.008;2022-09-09T03:09:28;100427.03;;;22.95;27.87
54870;BME280;40756;-37.950;145.008;2022-09-09T03:11:57;100428.28;;;23.80;27.58
54870;BME280;40756;-37.950;145.008;2022-09-09T03:14:27;100430.75;;;23.75;28.30
54870;BME280;40756;-37.950;145.008;2022-09-09T03:16:56;100431.28;;;24.18;27.43
54870;BME280;40756;-37.950;145.008;2022-09-09T03:19:26;100437.84;;;24.30;28.94
54870;BME280;40756;-37.950;145.008;2022-09-09T03:21:56;100435.48;;;23.75;28.54
54870;BME280;40756;-37.950;145.008;2022-09-09T03:24:25;100437.47;;;23.91;28.86
54870;BME280;40756;-37.950;145.008;2022-09-09T03:26:55;100429.39;;;23.29;28.39
54870;BME280;40756;-37.950;145.008;2022-09-09T03:29:24;100424.37;;;23.30;28.64
54870;BME280;40756;-37.950;145.008;2022-09-09T03:31:53;100416.61;;;22.41;28.30
54870;BME280;40756;-37.950;145.008;2022-09-09T03:34:23;100412.52;;;22.73;28.56
54870;BME280;40756;-37.950;145.008;2022-09-09T03:36:52;100412.36;;;22.26;28.58
54870;BME280;40756;-37.950;145.008;2022-09-09T03:39:23;100402.05;;;22.71;29.33
54870;BME280;40756;-37.950;145.008;2022-09-09T03:41:52;100401.93;;;22.04;28.38
54870;BME280;40756;-37.950;145.008;2022-09-09T03:44:21;100402.21;;;22.68;28.43
54870;BME280;40756;-37.950;145.008;2022-09-09T03:46:51;100403.27;;;23.12;27.99
54870;BME280;40756;-37.950;145.008;2022-09-09T03:49:20;100399.87;;;22.92;27.45
54870;BME280;40756;-37.950;145.008;2022-09-09T03:51:50;100394.13;;;23.70;27.78
54870;BME280;40756;-37.950;145.008;2022-09-09T03:54:19;100392.30;;;24.05;28.79
54870;BME280;40756;-37.950;145.008;2022-09-09T03:56:48;100387.45;;;23.85;26.96
54870;BME280;40756;-37.950;145.008;2022-09-09T03:59:18;100385.86;;;23.63;28.24
54870;BME280;40756;-37.950;145.008;2022-09-09T04:01:47;100386.30;;;23.48;28.34
54870;BME280;40756;-37.950;145.008;2022-09-09T04:04:17;100381.54;;;22.80;27.50
54870;BME280;40756;-37.950;145.008;2022-09-09T04:06:46;100382.19;;;23.52;29.03
54870;BME280;40756;-37.950;145.008;2022-09-09T04:09:15;100377.52;;;23.49;27.46
54870;BME280;40756;-37.950;145.008;2022-09-09T04:11:45;100379.02;;;23.67;28.84
54870;BME280;40756;-37.950;145.008;2022-09-09T04:14:14;100374.61;;;23.41;27.90
54870;BME280;40756;-37.950;145.008;2022-09-09T04:16:44;100369.63;;;23.58;28.46
54870;BME280;40756;-37.950;145.008;2022-09-09T04:19:14;100370.43;;;23.47;28.90
54870;BME280;40756;-37.950;145.008;2022-09-09T04:21:43;100369.31;;;22.85;28.65
54870;BME280;40756;-37.950;145.008;2022-09-09T04:24:13;100370.02;;;23.16;30.22
54870;BME280;40756;-37.950;145.008;2022-09-09T04:26:43;100368.32;;;22.88;29.63
54870;BME280;40756;-37.950;145.008;2022-09-09T04:29:12;100363.24;;;22.74;28.02
54870;BME280;40756;-37.950;145.008;2022-09-09T04:31:41;100363.42;;;22.83;29.48
54870;BME280;40756;-37.950;145.008;2022-09-09T04:34:11;100365.00;;;21.61;28.82
54870;BME280;40756;-37.950;145.008;2022-09-09T04:36:40;100363.40;;;22.61;29.72
54870;BME280;40756;-37.950;145.008;2022-09-09T04:39:10;100352.22;;;22.62;28.90
54870;BME280;40756;-37.950;145.008;2022-09-09T04:41:40;100356.14;;;23.02;27.38
54870;BME280;40756;-37.950;145.008;2022-09-09T04:44:10;100353.47;;;23.80;25.84
54870;BME280;40756;-37.950;145.008;2022-09-09T04:46:39;100353.17;;;24.71;25.66
54870;BME280;40756;-37.950;145.008;2022-09-09T04:49:08;100345.84;;;25.25;25.99
54870;BME280;40756;-37.950;145.008;2022-09-09T04:51:38;100343.72;;;25.89;25.96
54870;BME280;40756;-37.950;145.008;2022-09-09T04:54:07;100339.96;;;26.03;23.16
54870;BME280;40756;-37.950;145.008;2022-09-09T04:56:36;100334.08;;;26.73;23.43
54870;BME280;40756;-37.950;145.008;2022-09-09T04:59:05;100338.44;;;25.82;23.12
54870;BME280;40756;-37.950;145.008;2022-09-09T05:01:35;100335.29;;;26.16;21.91
54870;BME280;40756;-37.950;145.008;2022-09-09T05:04:04;100328.15;;;26.65;22.21
54870;BME280;40756;-37.950;145.008;2022-09-09T05:06:34;100325.80;;;26.56;23.50
54870;BME280;40756;-37.950;145.008;2022-09-09T05:09:03;100323.95;;;26.40;24.28
54870;BME280;40756;-37.950;145.008;2022-09-09T05:11:34;100325.74;;;26.16;23.57
54870;BME280;40756;-37.950;145.008;2022-09-09T05:14:04;100325.02;;;26.74;23.72
54870;BME280;40756;-37.950;145.008;2022-09-09T05:16:34;100325.03;;;26.66;23.77
54870;BME280;40756;-37.950;145.008;2022-09-09T05:19:03;100320.63;;;26.28;22.15
54870;BME280;40756;-37.950;145.008;2022-09-09T05:21:32;100321.18;;;26.48;23.08
54870;BME280;40756;-37.950;145.008;2022-09-09T05:24:02;100327.10;;;25.72;23.34
54870;BME280;40756;-37.950;145.008;2022-09-09T05:26:31;100322.85;;;25.51;23.70
54870;BME280;40756;-37.950;145.008;2022-09-09T05:29:00;100326.23;;;25.63;23.46
54870;BME280;40756;-37.950;145.008;2022-09-09T05:31:30;100318.75;;;25.81;23.39
54870;BME280;40756;-37.950;145.008;2022-09-09T05:34:00;100315.32;;;25.81;24.07
54870;BME280;40756;-37.950;145.008;2022-09-09T05:36:29;100313.61;;;25.45;24.08
54870;BME280;40756;-37.950;145.008;2022-09-09T05:38:59;100312.56;;;24.94;25.32
54870;BME280;40756;-37.950;145.008;2022-09-09T05:41:28;100312.84;;;24.87;24.42
54870;BME280;40756;-37.950;145.008;2022-09-09T05:43:58;100308.03;;;24.66;23.97
54870;BME280;40756;-37.950;145.008;2022-09-09T05:46:28;100304.53;;;24.01;22.98
54870;BME280;40756;-37.950;145.008;2022-09-09T05:48:57;100301.47;;;25.00;22.95
54870;BME280;40756;-37.950;145.008;2022-09-09T05:51:28;100293.35;;;25.75;21.89
54870;BME280;40756;-37.950;145.008;2022-09-09T05:53:58;100290.58;;;25.52;24.82
54870;BME280;40756;-37.950;145.008;2022-09-09T05:56:28;100284.69;;;25.77;26.45
54870;BME280;40756;-37.950;145.008;2022-09-09T05:58:57;100287.49;;;26.12;24.52
54870;BME280;40756;-37.950;145.008;2022-09-09T06:01:29;100284.00;;;26.34;21.10
54870;BME280;40756;-37.950;145.008;2022-09-09T06:04:00;100289.15;;;26.21;22.54
54870;BME280;40756;-37.950;145.008;2022-09-09T06:06:33;100282.60;;;26.59;23.56
54870;BME280;40756;-37.950;145.008;2022-09-09T06:09:04;100280.78;;;26.16;23.68
54870;BME280;40756;-37.950;145.008;2022-09-09T06:11:38;100279.58;;;26.17;21.91
54870;BME280;40756;-37.950;145.008;2022-09-09T06:14:08;100283.67;;;26.14;22.47
54870;BME280;40756;-37.950;145.008;2022-09-09T06:16:37;100283.69;;;26.27;21.23
54870;BME280;40756;-37.950;145.008;2022-09-09T06:19:07;100287.46;;;24.75;21.74
54870;BME280;40756;-37.950;145.008;2022-09-09T06:21:37;100284.01;;;24.61;22.39
54870;BME280;40756;-37.950;145.008;2022-09-09T06:24:07;100284.70;;;24.48;22.03
54870;BME280;40756;-37.950;145.008;2022-09-09T06:26:38;100285.97;;;24.77;22.56
54870;BME280;40756;-37.950;145.008;2022-09-09T06:29:08;100291.52;;;24.72;22.69
54870;BME280;40756;-37.950;145.008;2022-09-09T06:31:38;100286.88;;;24.93;23.48
54870;BME280;40756;-37.950;145.008;2022-09-09T06:34:09;100286.77;;;24.70;23.06
54870;BME280;40756;-37.950;145.008;2022-09-09T06:36:39;100288.43;;;24.40;23.34
54870;BME280;40756;-37.950;145.008;2022-09-09T06:39:08;100286.91;;;24.06;24.83
54870;BME280;40756;-37.950;145.008;2022-09-09T06:41:37;100290.54;;;24.06;25.49
54870;BME280;40756;-37.950;145.008;2022-09-09T06:44:07;100290.42;;;24.08;26.14
54870;BME280;40756;-37.950;145.008;2022-09-09T06:46:37;100292.74;;;23.71;26.73
54870;BME280;40756;-37.950;145.008;2022-09-09T06:49:07;100292.90;;;23.63;26.93
54870;BME280;40756;-37.950;145.008;2022-09-09T06:51:38;100295.69;;;23.58;25.12
54870;BME280;40756;-37.950;145.008;2022-09-09T06:54:07;100300.62;;;22.87;25.74
54870;BME280;40756;-37.950;145.008;2022-09-09T06:56:39;100300.39;;;22.59;26.08
54870;BME280;40756;-37.950;145.008;2022-09-09T06:59:09;100298.05;;;22.74;27.08
54870;BME280;40756;-37.950;145.008;2022-09-09T07:01:40;100301.69;;;21.84;27.46
54870;BME280;40756;-37.950;145.008;2022-09-09T07:04:11;100302.87;;;22.18;27.73
54870;BME280;40756;-37.950;145.008;2022-09-09T07:06:41;100308.62;;;21.66;28.21
54870;BME280;40756;-37.950;145.008;2022-09-09T07:09:12;100310.73;;;21.62;28.02
54870;BME280;40756;-37.950;145.008;2022-09-09T07:11:43;100309.94;;;21.28;28.56
54870;BME280;40756;-37.950;145.008;2022-09-09T07:14:13;100310.13;;;21.41;29.01
54870;BME280;40756;-37.950;145.008;2022-09-09T07:16:44;100309.03;;;21.42;28.72
54870;BME280;40756;-37.950;145.008;2022-09-09T07:19:14;100315.48;;;21.72;30.38
54870;BME280;40756;-37.950;145.008;2022-09-09T07:21:44;100318.06;;;21.74;28.48
54870;BME280;40756;-37.950;145.008;2022-09-09T07:24:14;100324.09;;;21.39;29.25
54870;BME280;40756;-37.950;145.008;2022-09-09T07:26:44;100327.24;;;21.41;28.88
54870;BME280;40756;-37.950;145.008;2022-09-09T07:29:13;100329.74;;;20.77;29.27
54870;BME280;40756;-37.950;145.008;2022-09-09T07:31:43;100328.50;;;21.56;30.84
54870;BME280;40756;-37.950;145.008;2022-09-09T07:34:12;100329.31;;;21.38;29.17
54870;BME280;40756;-37.950;145.008;2022-09-09T07:36:42;100332.04;;;21.64;31.95
54870;BME280;40756;-37.950;145.008;2022-09-09T07:39:13;100335.18;;;21.47;30.20
54870;BME280;40756;-37.950;145.008;2022-09-09T07:41:44;100335.58;;;21.61;30.21
54870;BME280;40756;-37.950;145.008;2022-09-09T07:44:18;100338.76;;;21.59;31.60
54870;BME280;40756;-37.950;145.008;2022-09-09T07:46:48;100344.98;;;20.92;29.78
54870;BME280;40756;-37.950;145.008;2022-09-09T07:49:18;100349.31;;;21.06;29.96
54870;BME280;40756;-37.950;145.008;2022-09-09T07:51:49;100347.14;;;21.28;31.56
54870;BME280;40756;-37.950;145.008;2022-09-09T07:54:19;100352.41;;;21.22;31.81
54870;BME280;40756;-37.950;145.008;2022-09-09T07:56:49;100362.39;;;20.88;32.98
54870;BME280;40756;-37.950;145.008;2022-09-09T07:59:19;100366.67;;;21.21;31.61
54870;BME280;40756;-37.950;145.008;2022-09-09T08:01:49;100371.76;;;20.71;32.93
54870;BME280;40756;-37.950;145.008;2022-09-09T08:04:21;100375.35;;;20.52;33.39
54870;BME280;40756;-37.950;145.008;2022-09-09T08:06:52;100376.02;;;20.40;34.31
54870;BME280;40756;-37.950;145.008;2022-09-09T08:09:23;100373.17;;;20.37;34.82
54870;BME280;40756;-37.950;145.008;2022-09-09T08:11:53;100371.77;;;20.01;34.63
54870;BME280;40756;-37.950;145.008;2022-09-09T08:14:22;100374.56;;;20.12;34.97
54870;BME280;40756;-37.950;145.008;2022-09-09T08:16:52;100375.60;;;19.89;34.98
54870;BME280;40756;-37.950;145.008;2022-09-09T08:19:22;100376.24;;;19.97;35.72
54870;BME280;40756;-37.950;145.008;2022-09-09T08:21:51;100376.05;;;19.60;36.21
54870;BME280;40756;-37.950;145.008;2022-09-09T08:24:21;100375.19;;;19.58;34.43
54870;BME280;40756;-37.950;145.008;2022-09-09T08:26:50;100375.15;;;19.42;36.14
54870;BME280;40756;-37.950;145.008;2022-09-09T08:29:20;100376.67;;;19.42;35.94
54870;BME280;40756;-37.950;145.008;2022-09-09T08:31:51;100380.78;;;19.55;36.30
54870;BME280;40756;-37.950;145.008;2022-09-09T08:34:21;100383.24;;;19.36;36.23
54870;BME280;40756;-37.950;145.008;2022-09-09T08:36:52;100387.09;;;19.23;35.89
54870;BME280;40756;-37.950;145.008;2022-09-09T08:39:22;100390.82;;;19.09;36.16
54870;BME280;40756;-37.950;145.008;2022-09-09T08:42:04;100394.49;;;19.11;36.46
54870;BME280;40756;-37.950;145.008;2022-09-09T08:44:50;100397.00;;;18.79;36.53
54870;BME280;40756;-37.950;145.008;2022-09-09T08:47:31;100399.69;;;18.93;35.97
54870;BME280;40756;-37.950;145.008;2022-09-09T08:50:16;100402.25;;;18.82;37.30
54870;BME280;40756;-37.950;145.008;2022-09-09T08:52:54;100405.63;;;18.46;36.89
54870;BME280;40756;-37.950;145.008;2022-09-09T08:55:32;100408.60;;;18.58;37.75
54870;BME280;40756;-37.950;145.008;2022-09-09T08:58:12;100409.18;;;18.57;36.80
54870;BME280;40756;-37.950;145.008;2022-09-09T09:00:57;100418.09;;;17.33;36.30
54870;BME280;40756;-37.950;145.008;2022-09-09T09:03:37;100418.54;;;17.71;36.76
54870;BME280;40756;-37.950;145.008;2022-09-09T09:06:18;100420.89;;;17.95;36.35
54870;BME280;40756;-37.950;145.008;2022-09-09T09:08:58;100419.18;;;18.55;36.40
54870;BME280;40756;-37.950;145.008;2022-09-09T09:11:36;100419.97;;;18.40;36.07
54870;BME280;40756;-37.950;145.008;2022-09-09T09:14:11;100418.35;;;18.29;36.26
54870;BME280;40756;-37.950;145.008;2022-09-09T09:16:52;100427.12;;;17.86;36.57
54870;BME280;40756;-37.950;145.008;2022-09-09T09:19:23;100424.31;;;18.20;36.35
54870;BME280;40756;-37.950;145.008;2022-09-09T09:21:58;100423.54;;;18.27;36.31
54870;BME280;40756;-37.950;145.008;2022-09-09T09:24:39;100423.81;;;18.50;36.26
54870;BME280;40756;-37.950;145.008;2022-09-09T09:27:14;100425.96;;;18.48;37.54
54870;BME280;40756;-37.950;145.008;2022-09-09T09:29:45;100426.56;;;18.28;37.33
54870;BME280;40756;-37.950;145.008;2022-09-09T09:32:18;100433.49;;;18.40;37.33
54870;BME280;40756;-37.950;145.008;2022-09-09T09:34:51;100431.12;;;18.15;37.42
54870;BME280;40756;-37.950;145.008;2022-09-09T09:37:28;100432.66;;;18.32;37.64
54870;BME280;40756;-37.950;145.008;2022-09-09T09:40:09;100438.23;;;18.19;37.96
54870;BME280;40756;-37.950;145.008;2022-09-09T09:42:49;100436.19;;;17.98;38.47
54870;BME280;40756;-37.950;145.008;2022-09-09T09:45:29;100434.61;;;18.26;39.37
54870;BME280;40756;-37.950;145.008;2022-09-09T09:48:03;100438.54;;;18.07;39.62
54870;BME280;40756;-37.950;145.008;2022-09-09T09:50:33;100442.18;;;17.84;40.09
54870;BME280;40756;-37.950;145.008;2022-09-09T09:53:05;100449.47;;;17.59;40.04
54870;BME280;40756;-37.950;145.008;2022-09-09T09:55:44;100451.77;;;17.32;40.08
54870;BME280;40756;-37.950;145.008;2022-09-09T09:58:16;100454.39;;;17.00;41.05
54870;BME280;40756;-37.950;145.008;2022-09-09T10:00:50;100453.65;;;16.91;41.57
54870;BME280;40756;-37.950;145.008;2022-09-09T10:03:25;100452.25;;;17.18;42.12
54870;BME280;40756;-37.950;145.008;2022-09-09T10:05:55;100452.34;;;16.51;41.92
54870;BME280;40756;-37.950;145.008;2022-09-09T10:08:27;100456.80;;;16.98;42.08
54870;BME280;40756;-37.950;145.008;2022-09-09T10:11:07;100461.06;;;16.59;42.53
54870;BME280;40756;-37.950;145.008;2022-09-09T10:13:53;100462.19;;;16.68;42.78
54870;BME280;40756;-37.950;145.008;2022-09-09T10:16:44;100461.59;;;16.49;42.90
54870;BME280;40756;-37.950;145.008;2022-09-09T10:19:26;100461.70;;;16.17;43.23
54870;BME280;40756;-37.950;145.008;2022-09-09T10:22:10;100459.01;;;16.45;42.87
54870;BME280;40756;-37.950;145.008;2022-09-09T10:25:13;100458.75;;;16.48;43.31
54870;BME280;40756;-37.950;145.008;2022-09-09T10:27:57;100459.40;;;16.39;43.67
54870;BME280;40756;-37.950;145.008;2022-09-09T10:30:39;100462.98;;;16.41;44.37
54870;BME280;40756;-37.950;145.008;2022-09-09T10:33:16;100461.31;;;16.40;44.44
54870;BME280;40756;-37.950;145.008;2022-09-09T10:35:56;100456.75;;;16.27;44.36
54870;BME280;40756;-37.950;145.008;2022-09-09T10:38:33;100456.07;;;15.92;44.71
54870;BME280;40756;-37.950;145.008;2022-09-09T10:41:16;100458.62;;;16.06;45.11
54870;BME280;40756;-37.950;145.008;2022-09-09T10:44:02;100456.61;;;15.86;45.53
54870;BME280;40756;-37.950;145.008;2022-09-09T10:46:48;100455.36;;;15.61;45.64
54870;BME280;40756;-37.950;145.008;2022-09-09T10:49:32;100458.02;;;15.70;45.89
54870;BME280;40756;-37.950;145.008;2022-09-09T10:52:18;100458.15;;;15.63;45.89
54870;BME280;40756;-37.950;145.008;2022-09-09T10:54:58;100460.97;;;15.95;46.27
54870;BME280;40756;-37.950;145.008;2022-09-09T10:57:33;100463.49;;;15.67;46.52
54870;BME280;40756;-37.950;145.008;2022-09-09T11:00:10;100463.29;;;15.82;46.24
54870;BME280;40756;-37.950;145.008;2022-09-09T11:02:43;100464.13;;;15.79;46.45
54870;BME280;40756;-37.950;145.008;2022-09-09T11:05:17;100467.96;;;15.85;46.39
54870;BME280;40756;-37.950;145.008;2022-09-09T11:07:51;100471.07;;;16.15;46.36
54870;BME280;40756;-37.950;145.008;2022-09-09T11:10:28;100476.37;;;15.94;46.04
54870;BME280;40756;-37.950;145.008;2022-09-09T11:13:04;100475.03;;;16.11;46.29
54870;BME280;40756;-37.950;145.008;2022-09-09T11:15:39;100471.74;;;15.80;46.04
54870;BME280;40756;-37.950;145.008;2022-09-09T11:18:15;100473.61;;;15.64;46.13
54870;BME280;40756;-37.950;145.008;2022-09-09T11:20:51;100470.33;;;16.05;45.57
54870;BME280;40756;-37.950;145.008;2022-09-09T11:23:25;100473.46;;;15.53;45.19
54870;BME280;40756;-37.950;145.008;2022-09-09T11:25:58;100474.52;;;15.79;44.82
54870;BME280;40756;-37.950;145.008;2022-09-09T11:28:40;100472.97;;;15.95;44.67
54870;BME280;40756;-37.950;145.008;2022-09-09T11:31:32;100478.39;;;16.24;44.33
54870;BME280;40756;-37.950;145.008;2022-09-09T11:34:20;100479.37;;;15.87;43.85
54870;BME280;40756;-37.950;145.008;2022-09-09T11:37:03;100483.35;;;16.10;43.50
54870;BME280;40756;-37.950;145.008;2022-09-09T11:39:47;100485.69;;;16.28;43.28
54870;BME280;40756;-37.950;145.008;2022-09-09T11:42:24;100482.23;;;16.55;42.83
54870;BME280;40756;-37.950;145.008;2022-09-09T11:44:54;100483.40;;;16.39;43.17
54870;BME280;40756;-37.950;145.008;2022-09-09T11:47:26;100485.28;;;16.44;42.74
54870;BME280;40756;-37.950;145.008;2022-09-09T11:50:07;100485.39;;;16.82;42.61
54870;BME280;40756;-37.950;145.008;2022-09-09T11:52:42;100488.04;;;16.48;42.77
54870;BME280;40756;-37.950;145.008;2022-09-09T11:55:24;100489.64;;;16.32;42.52
54870;BME280;40756;-37.950;145.008;2022-09-09T11:57:59;100492.19;;;16.02;42.98
54870;BME280;40756;-37.950;145.008;2022-09-09T12:00:34;100491.74;;;16.76;42.62
54870;BME280;40756;-37.950;145.008;2022-09-09T12:03:05;100493.29;;;16.61;42.81
54870;BME280;40756;-37.950;145.008;2022-09-09T12:05:40;100499.00;;;16.81;42.43
54870;BME280;40756;-37.950;145.008;2022-09-09T12:08:16;100498.73;;;16.34;42.29
54870;BME280;40756;-37.950;145.008;2022-09-09T12:10:57;100499.96;;;16.50;42.28
54870;BME280;40756;-37.950;145.008;2022-09-09T12:13:28;100501.90;;;16.29;42.65
54870;BME280;40756;-37.950;145.008;2022-09-09T12:15:58;100505.51;;;16.43;42.30
54870;BME280;40756;-37.950;145.008;2022-09-09T12:18:34;100507.18;;;16.49;41.94
54870;BME280;40756;-37.950;145.008;2022-09-09T12:21:11;100507.80;;;16.82;41.96
54870;BME280;40756;-37.950;145.008;2022-09-09T12:23:48;100511.39;;;16.36;42.13
54870;BME280;40756;-37.950;145.008;2022-09-09T12:26:30;100509.44;;;16.37;42.17
54870;BME280;40756;-37.950;145.008;2022-09-09T12:29:11;100510.90;;;16.88;42.03
54870;BME280;40756;-37.950;145.008;2022-09-09T12:31:46;100512.70;;;16.38;42.10
54870;BME280;40756;-37.950;145.008;2022-09-09T12:34:35;100511.75;;;16.26;42.26
54870;BME280;40756;-37.950;145.008;2022-09-09T12:37:14;100509.06;;;16.53;42.41
54870;BME280;40756;-37.950;145.008;2022-09-09T12:39:50;100508.60;;;15.84;42.77
54870;BME280;40756;-37.950;145.008;2022-09-09T12:42:23;100508.88;;;16.42;42.49
54870;BME280;40756;-37.950;145.008;2022-09-09T12:44:55;100510.44;;;16.34;42.45
54870;BME280;40756;-37.950;145.008;2022-09-09T12:47:30;100508.41;;;16.71;42.28
54870;BME280;40756;-37.950;145.008;2022-09-09T12:50:01;100514.87;;;16.16;42.53
54870;BME280;40756;-37.950;145.008;2022-09-09T12:52:34;100517.27;;;16.07;42.39
54870;BME280;40756;-37.950;145.008;2022-09-09T12:55:06;100516.82;;;16.23;42.41
54870;BME280;40756;-37.950;145.008;2022-09-09T12:57:38;100517.58;;;16.37;42.99